createdAt,value
2022-10-17T00:01:00.521Z,12.07
2022-10-17T00:03:28.687Z,12.48
2022-10-17T00:05:57.897Z,12.10
2022-10-17T00:08:27.476Z,13.45
2022-10-17T00:10:59.912Z,12.00
2022-10-17T00:13:28.025Z,12.13
2022-10-17T00:15:56.053Z,12.85
2022-10-17T00:18:23.884Z,12.00
2022-10-17T00:20:51.734Z,11.70
2022-10-17T00:23:19.666Z,12.25
2022-10-17T00:25:48.717Z,12.25
2022-10-17T00:28:17.156Z,12.45
2022-10-17T00:30:44.849Z,13.52
2022-10-17T00:33:12.542Z,11.93
2022-10-17T00:35:40.218Z,11.27
2022-10-17T00:38:07.851Z,12.18
2022-10-17T00:40:35.654Z,12.07
2022-10-17T00:43:04.774Z,12.90
2022-10-17T00:45:33.020Z,11.82
2022-10-17T00:48:02.310Z,12.90
2022-10-17T00:50:30.204Z,13.02
2022-10-17T00:53:00.921Z,11.82
2022-10-17T00:55:31.458Z,12.15
2022-10-17T00:57:59.623Z,11.65
2022-10-17T01:00:28.674Z,12.60
2022-10-17T01:02:56.390Z,11.57
2022-10-17T01:05:24.345Z,11.60
2022-10-17T01:07:54.231Z,12.15
2022-10-17T01:12:58.830Z,11.70
2022-10-17T01:15:40.147Z,12.77
2022-10-17T01:18:15.257Z,11.68
2022-10-17T01:21:01.598Z,11.85
2022-10-17T01:23:39.891Z,11.10
2022-10-17T01:26:17.157Z,11.15
2022-10-17T01:29:22.453Z,11.07
2022-10-17T01:31:56.299Z,10.88
2022-10-17T01:34:30.767Z,11.45
2022-10-17T01:37:01.888Z,10.88
2022-10-17T01:39:38.493Z,11.88
2022-10-17T01:42:14.129Z,10.80
2022-10-17T01:44:47.838Z,11.93
2022-10-17T01:47:20.729Z,12.13
2022-10-17T01:49:51.097Z,10.93
2022-10-17T01:52:21.816Z,11.05
2022-10-17T01:54:52.952Z,11.95
2022-10-17T01:57:25.242Z,11.40
2022-10-17T01:59:54.279Z,11.18
2022-10-17T02:02:24.537Z,11.50
2022-10-17T02:04:53.232Z,11.38
2022-10-17T02:07:20.944Z,11.32
2022-10-17T02:09:48.711Z,11.35
2022-10-17T02:12:39.709Z,11.05
2022-10-17T02:15:25.604Z,11.38
2022-10-17T02:17:59.329Z,11.38
2022-10-17T02:20:31.251Z,11.65
2022-10-17T02:23:02.725Z,11.48
2022-10-17T02:25:36.543Z,11.05
2022-10-17T02:28:10.755Z,10.82
2022-10-17T02:30:43.151Z,11.50
2022-10-17T02:33:14.615Z,11.38
2022-10-17T02:35:46.779Z,11.23
2022-10-17T02:38:14.652Z,11.30
2022-10-17T02:40:43.195Z,10.23
2022-10-17T02:43:11.092Z,10.98
2022-10-17T02:45:39.358Z,11.20
2022-10-17T02:48:09.414Z,11.95
2022-10-17T02:50:46.132Z,12.40
2022-10-17T02:53:16.404Z,11.07
2022-10-17T02:55:49.070Z,10.98
2022-10-17T02:58:21.001Z,11.32
2022-10-17T03:00:48.911Z,12.45
2022-10-17T03:03:21.313Z,10.38
2022-10-17T03:05:50.497Z,11.95
2022-10-17T03:08:18.171Z,11.10
2022-10-17T03:10:45.931Z,11.52
2022-10-17T03:13:13.741Z,10.77
2022-10-17T03:15:41.653Z,11.32
2022-10-17T03:18:09.638Z,11.10
2022-10-17T03:20:37.449Z,11.27
2022-10-17T03:23:06.596Z,11.63
2022-10-17T03:25:34.391Z,11.45
2022-10-17T03:28:02.227Z,11.18
2022-10-17T03:30:30.142Z,10.65
2022-10-17T03:32:58.657Z,10.98
2022-10-17T03:35:26.418Z,10.30
2022-10-17T03:37:54.216Z,10.48
2022-10-17T03:40:23.221Z,11.13
2022-10-17T03:42:50.916Z,10.90
2022-10-17T03:45:18.564Z,10.93
2022-10-17T03:47:46.328Z,11.23
2022-10-17T03:50:14.006Z,10.73
2022-10-17T03:52:41.657Z,10.95
2022-10-17T03:55:09.570Z,10.85
2022-10-17T03:57:41.105Z,10.77
2022-10-17T04:00:12.328Z,10.55
2022-10-17T04:02:40.120Z,11.15
2022-10-17T04:05:09.187Z,10.50
2022-10-17T04:07:37.234Z,10.90
2022-10-17T04:10:05.447Z,10.35
2022-10-17T04:12:33.194Z,10.68
2022-10-17T04:15:02.408Z,11.05
2022-10-17T04:17:35.783Z,10.15
2022-10-17T04:20:06.526Z,11.13
2022-10-17T04:22:34.325Z,10.50
2022-10-17T04:25:02.032Z,11.02
2022-10-17T04:27:29.778Z,10.68
2022-10-17T04:29:57.409Z,10.43
2022-10-17T04:32:26.906Z,10.48
2022-10-17T04:34:54.825Z,10.88
2022-10-17T04:37:22.469Z,11.00
2022-10-17T04:39:50.210Z,10.10
2022-10-17T04:42:17.992Z,11.32
2022-10-17T04:44:45.630Z,11.05
2022-10-17T04:47:13.322Z,10.25
2022-10-17T04:49:42.422Z,11.38
2022-10-17T04:52:10.140Z,11.23
2022-10-17T04:54:37.805Z,9.85
2022-10-17T04:57:05.587Z,11.40
2022-10-17T04:59:33.223Z,11.52
2022-10-17T05:02:00.937Z,10.63
2022-10-17T05:04:28.597Z,10.77
2022-10-17T05:06:57.749Z,10.68
2022-10-17T05:09:25.518Z,10.45
2022-10-17T05:11:53.413Z,10.95
2022-10-17T05:14:21.085Z,9.77
2022-10-17T05:16:48.846Z,10.38
2022-10-17T05:19:17.200Z,10.43
2022-10-17T05:21:45.171Z,10.60
2022-10-17T05:24:15.948Z,10.23
2022-10-17T05:26:43.593Z,10.65
2022-10-17T05:29:11.305Z,10.48
2022-10-17T05:31:39.200Z,10.65
2022-10-17T05:34:09.053Z,10.68
2022-10-17T05:36:39.245Z,10.60
2022-10-17T05:39:07.033Z,11.00
2022-10-17T05:41:36.109Z,11.57
2022-10-17T05:44:05.569Z,11.20
2022-10-17T05:46:34.485Z,11.35
2022-10-17T05:49:05.296Z,10.68
2022-10-17T05:51:35.540Z,10.48
2022-10-17T05:54:03.313Z,10.93
2022-10-17T05:56:31.009Z,10.88
2022-10-17T05:59:01.016Z,10.52
2022-10-17T06:01:29.005Z,9.48
2022-10-17T06:03:56.723Z,10.45
2022-10-17T06:06:24.547Z,11.20
2022-10-17T06:08:52.205Z,10.55
2022-10-17T06:11:19.787Z,10.68
2022-10-17T06:13:47.489Z,10.60
2022-10-17T06:16:16.582Z,11.30
2022-10-17T06:18:44.290Z,10.65
2022-10-17T06:21:13.003Z,9.90
2022-10-17T06:23:40.689Z,10.27
2022-10-17T06:26:08.493Z,10.20
2022-10-17T06:28:37.179Z,9.93
2022-10-17T06:31:08.570Z,10.73
2022-10-17T06:33:38.487Z,10.10
2022-10-17T06:36:07.751Z,10.07
2022-10-17T06:38:36.082Z,10.20
2022-10-17T06:41:07.886Z,10.18
2022-10-17T06:43:35.604Z,10.15
2022-10-17T06:46:03.273Z,11.27
2022-10-17T06:48:30.966Z,9.57
2022-10-17T06:51:01.601Z,10.55
2022-10-17T06:53:29.947Z,10.20
2022-10-17T06:56:01.379Z,10.63
2022-10-17T06:58:29.408Z,10.18
2022-10-17T07:01:01.012Z,10.15
2022-10-17T07:03:29.453Z,9.70
2022-10-17T07:05:57.698Z,10.23
2022-10-17T07:08:27.100Z,10.55
2022-10-17T07:10:55.399Z,10.38
2022-10-17T07:13:23.109Z,10.23
2022-10-17T07:15:50.975Z,10.05
2022-10-17T07:18:18.733Z,10.40
2022-10-17T07:20:53.988Z,10.45
2022-10-17T07:23:21.716Z,10.85
2022-10-17T07:25:50.949Z,11.38
2022-10-17T07:28:18.631Z,10.90
2022-10-17T07:30:49.313Z,10.52
2022-10-17T07:33:18.448Z,10.70
2022-10-17T07:35:46.093Z,10.80
2022-10-17T07:38:13.763Z,10.85
2022-10-17T07:40:41.394Z,11.55
2022-10-17T07:43:10.466Z,10.65
2022-10-17T07:45:38.214Z,11.32
2022-10-17T07:48:06.476Z,10.73
2022-10-17T07:50:34.203Z,11.00
2022-10-17T07:53:01.998Z,11.98
2022-10-17T07:55:29.648Z,12.15
2022-10-17T07:57:58.213Z,12.45
2022-10-17T08:00:27.367Z,11.63
2022-10-17T08:02:55.137Z,11.93
2022-10-17T08:05:22.848Z,12.57
2022-10-17T08:07:50.471Z,12.68
2022-10-17T08:10:18.691Z,11.80
2022-10-17T08:12:46.486Z,11.98
2022-10-17T08:15:14.307Z,11.80
2022-10-17T08:17:43.336Z,12.43
2022-10-17T08:20:12.291Z,11.52
2022-10-17T08:22:39.971Z,11.32
2022-10-17T08:25:08.768Z,11.80
2022-10-17T08:27:36.871Z,11.85
2022-10-17T08:30:05.012Z,12.60
2022-10-17T08:32:32.927Z,12.90
2022-10-17T08:35:02.298Z,12.68
2022-10-17T08:37:31.004Z,11.80
2022-10-17T08:39:59.432Z,12.00
2022-10-17T08:42:47.003Z,12.68
2022-10-17T08:45:21.769Z,12.13
2022-10-17T08:47:52.537Z,12.40
2022-10-17T08:50:26.958Z,12.10
2022-10-17T08:52:56.957Z,12.65
2022-10-17T08:55:31.006Z,12.60
2022-10-17T08:57:58.858Z,12.45
2022-10-17T09:00:27.480Z,12.23
2022-10-17T09:03:09.595Z,13.30
2022-10-17T09:05:47.189Z,11.93
2022-10-17T09:08:33.982Z,13.10
2022-10-17T09:11:04.307Z,12.55
2022-10-17T09:13:43.314Z,13.38
2022-10-17T09:16:31.053Z,13.07
2022-10-17T09:19:03.105Z,12.80
2022-10-17T09:21:40.799Z,13.40
2022-10-17T09:24:16.170Z,13.13
2022-10-17T09:26:45.921Z,13.10
2022-10-17T09:29:20.181Z,13.73
2022-10-17T09:31:52.527Z,13.43
2022-10-17T09:34:22.951Z,14.07
2022-10-17T09:36:54.403Z,13.25
2022-10-17T09:39:26.056Z,13.75
2022-10-17T09:41:55.620Z,13.25
2022-10-17T09:44:24.773Z,13.60
2022-10-17T09:47:08.862Z,12.82
2022-10-17T09:49:39.297Z,13.30
2022-10-17T09:52:12.946Z,13.75
2022-10-17T09:54:47.190Z,12.85
2022-10-17T09:57:16.214Z,13.02
2022-10-17T09:59:46.101Z,13.57
2022-10-17T10:02:22.085Z,13.25
2022-10-17T10:05:05.593Z,12.95
2022-10-17T10:07:37.397Z,13.48
2022-10-17T10:10:07.327Z,13.35
2022-10-17T10:12:37.423Z,13.55
2022-10-17T10:15:32.058Z,13.55
2022-10-17T10:17:59.764Z,13.07
2022-10-17T10:20:31.652Z,12.60
2022-10-17T10:23:14.915Z,13.70
2022-10-17T10:25:56.088Z,13.75
2022-10-17T10:28:27.860Z,14.73
2022-10-17T10:30:56.742Z,13.55
2022-10-17T10:33:27.359Z,12.82
2022-10-17T10:35:57.817Z,13.30
2022-10-17T10:38:26.763Z,13.20
2022-10-17T10:40:56.120Z,12.80
2022-10-17T10:43:29.662Z,13.43
2022-10-17T10:45:57.357Z,13.00
2022-10-17T10:48:26.382Z,13.07
2022-10-17T10:50:57.449Z,14.23
2022-10-17T10:53:38.349Z,14.10
2022-10-17T10:56:11.964Z,13.40
2022-10-17T10:58:43.741Z,13.15
2022-10-17T11:01:16.713Z,13.05
2022-10-17T11:03:54.702Z,13.43
2022-10-17T11:06:25.628Z,14.00
2022-10-17T11:09:15.909Z,13.57
2022-10-17T11:11:46.478Z,13.82
2022-10-17T11:14:17.726Z,14.48
2022-10-17T11:16:48.896Z,13.40
2022-10-17T11:19:21.621Z,14.53
2022-10-17T11:21:52.873Z,14.52
2022-10-17T11:24:25.495Z,13.60
2022-10-17T11:26:56.936Z,12.88
2022-10-17T11:29:29.658Z,13.90
2022-10-17T11:31:59.488Z,13.93
2022-10-17T11:34:28.613Z,13.48
2022-10-17T11:37:00.945Z,14.10
2022-10-17T11:39:32.558Z,14.23
2022-10-17T11:42:04.335Z,14.10
2022-10-17T11:44:35.478Z,14.40
2022-10-17T11:47:06.323Z,14.73
2022-10-17T11:49:39.947Z,14.57
2022-10-17T11:52:37.836Z,14.35
2022-10-17T11:55:12.580Z,14.57
2022-10-17T11:57:52.697Z,14.25
2022-10-17T12:00:28.936Z,14.55
2022-10-17T12:03:05.218Z,14.23
2022-10-17T12:05:38.165Z,13.93
2022-10-17T12:08:11.456Z,14.63
2022-10-17T12:10:46.952Z,13.75
2022-10-17T12:13:54.630Z,14.50
2022-10-17T12:16:44.658Z,13.70
2022-10-17T12:19:32.422Z,13.88
2022-10-17T12:22:03.664Z,14.55
2022-10-17T12:24:40.408Z,14.13
2022-10-17T12:27:33.378Z,13.68
2022-10-17T12:30:02.217Z,13.93
2022-10-17T12:32:36.841Z,14.27
2022-10-17T12:35:20.279Z,14.23
2022-10-17T12:38:28.252Z,13.50
2022-10-17T12:41:02.856Z,13.50
2022-10-17T12:46:45.234Z,13.45
2022-10-17T12:49:39.127Z,13.48
2022-10-17T12:52:19.883Z,13.55
2022-10-17T12:55:00.234Z,14.13
2022-10-17T12:57:39.120Z,12.75
2022-10-17T13:00:16.698Z,14.07
2022-10-17T13:02:44.623Z,14.07
2022-10-17T13:05:15.905Z,14.40
2022-10-17T13:07:45.457Z,14.25
2022-10-17T13:10:21.663Z,14.70
2022-10-17T13:12:50.111Z,13.10
2022-10-17T13:15:21.127Z,13.20
2022-10-17T13:17:56.975Z,14.40
2022-10-17T13:20:30.611Z,13.80
2022-10-17T13:22:59.979Z,13.60
2022-10-17T13:25:28.652Z,14.02
2022-10-17T13:28:09.662Z,13.90
2022-10-17T13:30:38.728Z,13.95
2022-10-17T13:33:20.089Z,13.60
2022-10-17T13:35:59.887Z,13.50
2022-10-17T13:38:29.969Z,13.52
2022-10-17T13:41:10.791Z,13.90
2022-10-17T13:43:45.982Z,13.02
2022-10-17T13:46:36.905Z,14.52
2022-10-17T13:51:39.005Z,14.02
2022-10-17T13:54:19.004Z,14.45
2022-10-17T13:56:46.907Z,13.75
2022-10-17T13:59:21.912Z,14.73
2022-10-17T14:01:52.229Z,13.73
2022-10-17T14:04:20.646Z,12.95
2022-10-17T14:06:51.127Z,13.68
2022-10-17T14:09:22.707Z,13.48
2022-10-17T14:12:00.085Z,13.70
2022-10-17T14:14:28.044Z,13.48
2022-10-17T14:16:58.305Z,13.73
2022-10-17T14:19:28.869Z,13.88
2022-10-17T14:21:57.773Z,13.65
2022-10-17T14:24:31.453Z,13.43
2022-10-17T14:27:00.481Z,14.05
2022-10-17T14:29:30.512Z,14.00
2022-10-17T14:32:04.304Z,14.07
2022-10-17T14:34:35.044Z,14.82
2022-10-17T14:37:03.538Z,13.80
2022-10-17T14:39:31.336Z,13.55
2022-10-17T14:42:04.068Z,13.35
2022-10-17T14:44:33.638Z,13.77
2022-10-17T14:47:30.246Z,13.90
2022-10-17T14:49:53.860Z,13.82
2022-10-17T14:52:32.457Z,14.23
2022-10-17T14:55:01.837Z,13.57
2022-10-17T14:57:43.021Z,13.73
2022-10-17T15:00:15.427Z,13.70
2022-10-17T15:02:44.969Z,12.75
2022-10-17T15:05:13.550Z,12.93
2022-10-17T15:07:41.537Z,13.20
2022-10-17T15:10:22.172Z,13.57
2022-10-17T15:12:58.802Z,13.40
2022-10-17T15:15:33.110Z,13.43
2022-10-17T15:18:02.625Z,13.63
2022-10-17T15:20:30.885Z,13.45
2022-10-17T15:22:59.500Z,12.85
2022-10-17T15:25:27.851Z,14.35
2022-10-17T15:27:55.836Z,13.70
2022-10-17T15:30:25.425Z,14.15
2022-10-17T15:32:53.621Z,14.02
2022-10-17T15:35:23.515Z,13.75
2022-10-17T15:37:51.534Z,14.30
2022-10-17T15:40:21.302Z,13.32
2022-10-17T15:42:49.117Z,14.07
2022-10-17T15:45:18.925Z,14.07
2022-10-17T15:47:51.805Z,14.05
2022-10-17T15:50:19.896Z,13.40
2022-10-17T15:52:50.896Z,12.50
2022-10-17T15:55:19.204Z,13.23
2022-10-17T15:57:48.240Z,13.77
2022-10-17T16:00:19.551Z,14.05
2022-10-17T16:02:47.965Z,13.68
2022-10-17T16:05:18.020Z,13.10
2022-10-17T16:07:46.882Z,14.70
2022-10-17T16:10:16.879Z,14.15
2022-10-17T16:12:44.655Z,13.35
2022-10-17T16:15:15.025Z,12.35
2022-10-17T16:17:43.862Z,14.07
2022-10-17T16:20:12.544Z,13.05
2022-10-17T16:22:41.703Z,12.73
2022-10-17T16:25:20.405Z,13.82
2022-10-17T16:27:48.402Z,13.60
2022-10-17T16:32:54.276Z,13.13
2022-10-17T16:35:23.919Z,15.38
2022-10-17T16:37:51.788Z,14.48
2022-10-17T16:40:20.917Z,14.00
2022-10-17T16:42:48.607Z,14.05
2022-10-17T16:45:19.516Z,13.55
2022-10-17T16:47:48.358Z,12.80
2022-10-17T16:50:17.210Z,13.02
2022-10-17T16:52:45.002Z,13.35
2022-10-17T16:55:12.865Z,13.63
2022-10-17T17:00:18.283Z,14.00
2022-10-17T17:02:48.627Z,13.55
2022-10-17T17:05:16.491Z,31.02
2022-10-17T17:07:44.291Z,18.25
2022-10-17T17:10:12.142Z,20.02
2022-10-17T17:12:41.380Z,18.02
2022-10-17T17:15:09.714Z,15.50
2022-10-17T17:17:49.513Z,14.50
2022-10-17T17:20:19.102Z,13.82
2022-10-17T17:22:46.783Z,13.68
2022-10-17T17:25:14.646Z,14.13
2022-10-17T17:27:43.831Z,14.25
2022-10-17T17:30:12.665Z,14.25
2022-10-17T17:32:40.480Z,17.73
2022-10-17T17:35:09.459Z,18.10
2022-10-17T17:37:37.353Z,18.02
2022-10-17T17:40:06.578Z,15.77
2022-10-17T17:42:34.269Z,15.07
2022-10-17T17:45:03.762Z,15.80
2022-10-17T17:47:31.875Z,17.15
2022-10-17T17:49:59.759Z,15.93
2022-10-17T17:52:27.738Z,16.92
2022-10-17T17:54:55.647Z,15.55
2022-10-17T17:57:23.423Z,15.02
2022-10-17T17:59:52.218Z,13.18
2022-10-17T18:02:21.350Z,13.52
2022-10-17T18:04:49.710Z,12.73
2022-10-17T18:07:17.863Z,12.90
2022-10-17T18:09:45.585Z,13.52
2022-10-17T18:12:13.259Z,13.98
2022-10-17T18:14:40.931Z,12.73
2022-10-17T18:17:08.687Z,13.93
2022-10-17T18:19:37.823Z,13.93
2022-10-17T18:22:05.542Z,13.13
2022-10-17T18:24:33.219Z,12.48
2022-10-17T18:27:01.275Z,13.65
2022-10-17T18:29:29.507Z,14.77
2022-10-17T18:31:57.317Z,13.60
2022-10-17T18:34:25.439Z,13.57
2022-10-17T18:36:54.649Z,15.25
2022-10-17T18:39:22.611Z,13.70
2022-10-17T18:41:50.368Z,13.02
2022-10-17T18:44:18.099Z,12.50
2022-10-17T18:49:14.973Z,15.45
2022-10-17T18:51:43.231Z,13.70
2022-10-17T18:54:16.960Z,12.63
2022-10-17T18:56:45.039Z,12.70
2022-10-17T18:59:12.660Z,13.02
2022-10-17T19:01:40.433Z,13.82
2022-10-17T19:04:08.127Z,14.00
2022-10-17T19:06:35.786Z,13.52
2022-10-17T19:09:05.960Z,14.40
2022-10-17T19:11:36.192Z,12.40
2022-10-17T19:14:05.562Z,13.00
2022-10-17T19:16:35.468Z,13.30
2022-10-17T19:19:04.917Z,12.52
2022-10-17T19:21:32.630Z,12.55
2022-10-17T19:24:01.755Z,13.25
2022-10-17T19:26:31.046Z,13.07
2022-10-17T19:29:00.596Z,12.85
2022-10-17T19:31:29.996Z,12.65
2022-10-17T19:33:57.753Z,12.43
2022-10-17T19:36:30.468Z,13.10
2022-10-17T19:39:02.087Z,13.32
2022-10-17T19:41:29.769Z,15.43
2022-10-17T19:43:57.507Z,15.00
2022-10-17T19:46:27.905Z,15.13
2022-10-17T19:48:55.986Z,15.05
2022-10-17T19:51:25.313Z,13.13
2022-10-17T19:53:54.183Z,13.52
2022-10-17T19:56:22.858Z,12.88
2022-10-17T19:58:50.975Z,14.70
2022-10-17T20:01:20.505Z,12.90
2022-10-17T20:03:49.915Z,12.25
2022-10-17T20:06:18.478Z,12.95
2022-10-17T20:08:46.433Z,13.57
2022-10-17T20:11:15.511Z,12.65
2022-10-17T20:13:43.366Z,12.70
2022-10-17T20:16:13.879Z,13.73
2022-10-17T20:18:41.784Z,13.60
2022-10-17T20:21:12.438Z,13.63
2022-10-17T20:23:40.737Z,14.10
2022-10-17T20:26:25.529Z,14.82
2022-10-17T20:28:54.315Z,15.63
2022-10-17T20:31:22.211Z,14.57
2022-10-17T20:33:49.882Z,16.38
2022-10-17T20:36:23.245Z,15.63
2022-10-17T20:38:54.185Z,16.63
2022-10-17T20:41:21.847Z,15.98
2022-10-17T20:43:51.471Z,14.80
2022-10-17T20:46:29.773Z,15.43
2022-10-17T20:49:04.644Z,16.05
2022-10-17T20:51:34.544Z,15.00
2022-10-17T20:54:03.260Z,14.85
2022-10-17T20:56:32.828Z,14.93
2022-10-17T20:59:02.014Z,13.45
2022-10-17T21:01:30.453Z,13.65
2022-10-17T21:04:06.173Z,13.35
2022-10-17T21:06:39.804Z,12.88
2022-10-17T21:09:07.938Z,12.85
2022-10-17T21:11:35.612Z,12.63
2022-10-17T21:14:04.888Z,13.80
2022-10-17T21:16:34.957Z,12.70
2022-10-17T21:19:03.041Z,12.90
2022-10-17T21:21:33.585Z,13.13
2022-10-17T21:24:04.872Z,12.15
2022-10-17T21:26:33.777Z,13.63
2022-10-17T21:29:05.402Z,14.57
2022-10-17T21:31:34.179Z,13.20
2022-10-17T21:34:08.660Z,12.95
2022-10-17T21:36:36.544Z,13.13
2022-10-17T21:41:34.058Z,12.52
2022-10-17T21:44:03.594Z,13.48
2022-10-17T21:46:31.720Z,13.88
2022-10-17T21:49:00.186Z,12.82
2022-10-17T21:51:28.194Z,12.60
2022-10-17T21:53:57.131Z,13.60
2022-10-17T21:56:28.757Z,12.60
2022-10-17T21:58:57.790Z,12.68
2022-10-17T22:01:26.980Z,12.20
2022-10-17T22:03:55.967Z,12.88
2022-10-17T22:06:39.322Z,13.35
2022-10-17T22:09:10.269Z,12.88
2022-10-17T22:11:39.541Z,12.30
2022-10-17T22:14:08.886Z,13.15
2022-10-17T22:16:36.536Z,12.57
2022-10-17T22:19:06.475Z,13.88
2022-10-17T22:21:35.274Z,13.40
2022-10-17T22:24:04.983Z,12.20
2022-10-17T22:26:33.889Z,12.75
2022-10-17T22:29:04.296Z,12.13
2022-10-17T22:31:32.281Z,12.75
2022-10-17T22:34:00.163Z,12.05
2022-10-17T22:36:27.892Z,12.60
2022-10-17T22:38:55.544Z,13.00
2022-10-17T22:41:23.233Z,12.57
2022-10-17T22:43:50.944Z,12.15
2022-10-17T22:46:19.971Z,13.00
2022-10-17T22:48:47.632Z,12.77
2022-10-17T22:51:15.499Z,13.43
2022-10-17T22:53:43.202Z,13.00
2022-10-17T22:56:14.137Z,12.35
2022-10-17T22:58:42.243Z,13.63
2022-10-17T23:01:12.713Z,11.57
2022-10-17T23:03:41.831Z,11.82
2022-10-17T23:06:09.531Z,12.52
2022-10-17T23:08:37.761Z,11.38
2022-10-17T23:11:06.253Z,12.07
2022-10-17T23:13:33.966Z,12.48
2022-10-17T23:16:01.727Z,11.68
2022-10-17T23:20:58.373Z,12.95
2022-10-17T23:23:26.052Z,12.57
2022-10-17T23:25:53.961Z,12.60
2022-10-17T23:28:21.980Z,13.07
2022-10-17T23:30:49.737Z,12.65
2022-10-17T23:33:17.392Z,13.18
2022-10-17T23:35:45.159Z,12.73
2022-10-17T23:38:14.197Z,13.32
2022-10-17T23:40:42.057Z,12.38
2022-10-17T23:43:09.801Z,12.63
2022-10-17T23:45:37.575Z,13.32
2022-10-17T23:48:05.986Z,11.88
2022-10-17T23:50:33.632Z,12.40
2022-10-17T23:53:01.264Z,12.25
2022-10-17T23:55:30.493Z,12.63
2022-10-17T23:57:58.132Z,12.02
